createdAt,value
2022-10-13T00:00:14.585Z,28.90
2022-10-13T00:02:41.558Z,23.73
2022-10-13T00:05:13.755Z,30.98
2022-10-13T00:07:40.667Z,22.15
2022-10-13T00:10:07.892Z,22.20
2022-10-13T00:12:36.520Z,23.33
2022-10-13T00:15:07.466Z,29.08
2022-10-13T00:17:36.453Z,29.08
2022-10-13T00:20:08.244Z,24.55
2022-10-13T00:22:35.490Z,31.20
2022-10-13T00:25:04.062Z,25.10
2022-10-13T00:27:30.750Z,23.67
2022-10-13T00:29:57.485Z,23.13
2022-10-13T00:32:25.630Z,24.73
2022-10-13T00:34:52.367Z,28.77
2022-10-13T00:37:22.533Z,29.20
2022-10-13T00:39:49.310Z,25.88
2022-10-13T00:42:17.496Z,29.50
2022-10-13T00:45:06.029Z,28.13
2022-10-13T00:47:41.530Z,27.00
2022-10-13T00:50:12.095Z,28.40
2022-10-13T00:52:44.603Z,26.25
2022-10-13T00:55:16.461Z,26.58
2022-10-13T00:57:46.544Z,28.20
2022-10-13T01:00:14.012Z,31.83
2022-10-13T01:02:43.693Z,27.38
2022-10-13T01:05:14.126Z,24.77
2022-10-13T01:07:43.368Z,27.40
2022-10-13T01:10:12.418Z,25.63
2022-10-13T01:12:51.082Z,25.20
2022-10-13T01:15:28.045Z,25.58
2022-10-13T01:18:23.574Z,26.67
2022-10-13T01:21:06.400Z,32.60
2022-10-13T01:23:43.442Z,27.90
2022-10-13T01:26:39.082Z,27.00
2022-10-13T01:29:11.767Z,23.85
2022-10-13T01:31:54.145Z,27.20
2022-10-13T01:34:36.174Z,25.08
2022-10-13T01:37:26.667Z,25.48
2022-10-13T01:40:11.835Z,28.17
2022-10-13T01:43:12.113Z,26.30
2022-10-13T01:45:53.099Z,23.13
2022-10-13T01:48:20.417Z,24.30
2022-10-13T01:50:49.180Z,30.02
2022-10-13T01:53:19.984Z,29.17
2022-10-13T01:55:59.371Z,22.48
2022-10-13T01:58:30.114Z,27.25
2022-10-13T02:01:18.497Z,27.88
2022-10-13T02:04:09.878Z,27.27
2022-10-13T02:06:50.433Z,24.20
2022-10-13T02:09:38.398Z,26.70
2022-10-13T02:14:57.332Z,25.10
2022-10-13T02:17:28.891Z,22.63
2022-10-13T02:19:57.370Z,23.35
2022-10-13T02:22:29.757Z,22.00
2022-10-13T02:24:56.877Z,21.98
2022-10-13T02:27:24.281Z,22.10
2022-10-13T02:29:57.287Z,23.70
2022-10-13T02:32:27.485Z,21.50
2022-10-13T02:34:56.175Z,22.13
2022-10-13T02:37:25.591Z,23.17
2022-10-13T02:39:55.210Z,26.15
2022-10-13T02:42:22.305Z,16.77
2022-10-13T02:44:51.144Z,22.88
2022-10-13T02:47:17.997Z,19.52
2022-10-13T02:49:44.695Z,20.77
2022-10-13T02:52:11.621Z,23.15
2022-10-13T02:54:38.672Z,19.95
2022-10-13T02:57:06.384Z,22.75
2022-10-13T02:59:35.160Z,20.15
2022-10-13T03:02:04.120Z,17.58
2022-10-13T03:04:33.543Z,21.05
2022-10-13T03:07:01.828Z,20.05
2022-10-13T03:09:30.242Z,21.83
2022-10-13T03:11:57.201Z,19.75
2022-10-13T03:14:24.255Z,19.33
2022-10-13T03:16:51.195Z,15.85
2022-10-13T03:19:17.865Z,19.42
2022-10-13T03:21:46.040Z,20.27
2022-10-13T03:24:12.744Z,24.02
2022-10-13T03:26:40.576Z,21.40
2022-10-13T03:29:07.818Z,22.52
2022-10-13T03:31:36.096Z,23.40
2022-10-13T03:34:04.382Z,23.48
2022-10-13T03:36:40.533Z,20.42
2022-10-13T03:39:08.020Z,21.70
2022-10-13T03:41:35.997Z,18.70
2022-10-13T03:44:02.759Z,18.95
2022-10-13T03:46:30.695Z,16.88
2022-10-13T03:48:57.494Z,20.02
2022-10-13T03:51:24.721Z,15.93
2022-10-13T03:53:54.319Z,18.50
2022-10-13T03:56:26.808Z,24.35
2022-10-13T03:58:58.646Z,19.48
2022-10-13T04:01:27.585Z,22.23
2022-10-13T04:03:55.797Z,17.02
2022-10-13T04:06:23.310Z,17.02
2022-10-13T04:08:50.540Z,16.98
2022-10-13T04:11:22.761Z,16.02
2022-10-13T04:13:49.581Z,25.58
2022-10-13T04:16:23.966Z,21.00
2022-10-13T04:18:53.444Z,16.35
2022-10-13T04:21:20.303Z,15.18
2022-10-13T04:23:47.160Z,18.90
2022-10-13T04:26:22.199Z,17.58
2022-10-13T04:28:50.621Z,19.75
2022-10-13T04:31:17.670Z,18.75
2022-10-13T04:33:46.627Z,19.33
2022-10-13T04:36:14.712Z,22.90
2022-10-13T04:38:44.732Z,21.30
2022-10-13T04:41:12.485Z,20.58
2022-10-13T04:43:40.771Z,23.83
2022-10-13T04:46:12.474Z,25.00
2022-10-13T04:48:39.387Z,20.83
2022-10-13T04:51:10.246Z,19.08
2022-10-13T04:53:37.086Z,23.10
2022-10-13T04:56:06.187Z,24.88
2022-10-13T04:58:33.191Z,22.00
2022-10-13T05:01:00.027Z,18.77
2022-10-13T05:03:28.107Z,27.80
2022-10-13T05:05:56.712Z,19.80
2022-10-13T05:08:24.426Z,20.77
2022-10-13T05:11:00.246Z,26.10
2022-10-13T05:13:29.431Z,24.52
2022-10-13T05:15:56.630Z,22.17
2022-10-13T05:18:23.659Z,19.20
2022-10-13T05:20:50.660Z,24.33
2022-10-13T05:23:18.986Z,19.27
2022-10-13T05:25:48.245Z,23.45
2022-10-13T05:28:14.999Z,25.75
2022-10-13T05:30:41.928Z,24.85
2022-10-13T05:33:10.182Z,25.52
2022-10-13T05:35:36.855Z,22.52
2022-10-13T05:38:04.621Z,25.30
2022-10-13T05:40:33.654Z,22.20
2022-10-13T05:43:00.655Z,27.92
2022-10-13T05:45:29.452Z,26.63
2022-10-13T05:47:56.192Z,18.85
2022-10-13T05:50:22.993Z,20.73
2022-10-13T05:52:50.471Z,24.60
2022-10-13T05:55:19.099Z,22.90
2022-10-13T05:57:51.546Z,20.38
2022-10-13T06:00:19.936Z,22.10
2022-10-13T06:03:14.930Z,23.15
2022-10-13T06:05:45.192Z,22.15
2022-10-13T06:08:11.910Z,23.88
2022-10-13T06:10:38.689Z,20.65
2022-10-13T06:13:05.475Z,20.02
2022-10-13T06:15:33.172Z,21.65
2022-10-13T06:17:59.940Z,19.65
2022-10-13T06:20:27.687Z,20.00
2022-10-13T06:22:55.881Z,22.13
2022-10-13T06:25:22.858Z,21.15
2022-10-13T06:27:49.937Z,21.73
2022-10-13T06:30:17.296Z,22.67
2022-10-13T06:32:44.441Z,19.67
2022-10-13T06:35:11.205Z,23.23
2022-10-13T06:37:37.937Z,23.17
2022-10-13T06:40:05.850Z,21.88
2022-10-13T06:42:34.779Z,29.23
2022-10-13T06:45:01.682Z,24.48
2022-10-13T06:47:29.882Z,17.58
2022-10-13T06:49:56.674Z,27.15
2022-10-13T06:52:23.794Z,21.80
2022-10-13T06:54:50.539Z,23.40
2022-10-13T06:57:17.214Z,20.52
2022-10-13T06:59:44.533Z,24.58
2022-10-13T07:02:11.518Z,21.27
2022-10-13T07:04:38.211Z,22.10
2022-10-13T07:07:06.294Z,21.35
2022-10-13T07:09:32.982Z,20.08
2022-10-13T07:12:00.100Z,25.33
2022-10-13T07:14:26.898Z,18.02
2022-10-13T07:16:54.035Z,21.23
2022-10-13T07:19:20.894Z,24.92
2022-10-13T07:21:48.981Z,24.20
2022-10-13T07:24:15.934Z,23.88
2022-10-13T07:26:42.655Z,24.27
2022-10-13T07:29:09.782Z,30.05
2022-10-13T07:31:38.352Z,28.30
2022-10-13T07:34:05.690Z,26.05
2022-10-13T07:36:33.745Z,22.98
2022-10-13T07:39:01.499Z,21.83
2022-10-13T07:41:28.510Z,20.50
2022-10-13T07:43:58.880Z,25.80
2022-10-13T07:46:26.008Z,21.83
2022-10-13T07:48:56.333Z,24.83
2022-10-13T07:51:23.525Z,24.08
2022-10-13T07:53:50.609Z,25.30
2022-10-13T07:56:17.484Z,24.33
2022-10-13T07:58:47.055Z,26.42
2022-10-13T08:01:14.901Z,24.48
2022-10-13T08:03:47.173Z,20.92
2022-10-13T08:06:17.249Z,23.15
2022-10-13T08:08:44.197Z,23.10
2022-10-13T08:11:16.230Z,25.23
2022-10-13T08:13:50.619Z,24.50
2022-10-13T08:16:18.290Z,26.63
2022-10-13T08:18:46.641Z,23.70
2022-10-13T08:24:06.336Z,24.52
2022-10-13T08:26:33.659Z,29.23
2022-10-13T08:29:20.837Z,21.55
2022-10-13T08:34:16.328Z,27.05
2022-10-13T08:36:43.750Z,23.88
2022-10-13T08:39:10.761Z,26.58
2022-10-13T08:41:41.359Z,24.13
2022-10-13T08:47:35.392Z,24.15
2022-10-13T08:50:07.134Z,21.63
2022-10-13T08:53:27.253Z,24.42
2022-10-13T08:55:59.439Z,21.15
2022-10-13T08:58:29.738Z,25.50
2022-10-13T09:01:18.382Z,23.02
2022-10-13T09:03:56.721Z,25.45
2022-10-13T09:06:48.313Z,23.73
2022-10-13T09:09:17.342Z,22.33
2022-10-13T09:11:46.709Z,19.00
2022-10-13T09:14:22.972Z,20.45
2022-10-13T09:16:51.350Z,25.90
2022-10-13T09:19:34.164Z,27.23
2022-10-13T09:22:24.124Z,23.92
2022-10-13T09:25:11.930Z,19.92
2022-10-13T09:27:59.267Z,20.05
2022-10-13T09:30:37.045Z,24.23
2022-10-13T09:33:19.187Z,22.08
2022-10-13T09:35:48.928Z,24.25
2022-10-13T09:38:21.449Z,20.73
2022-10-13T09:40:59.700Z,22.95
2022-10-13T09:43:47.489Z,19.15
2022-10-13T09:46:21.639Z,19.33
2022-10-13T09:51:34.433Z,15.90
2022-10-13T09:54:01.647Z,19.85
2022-10-13T09:56:44.732Z,17.13
2022-10-13T09:59:11.403Z,18.58
2022-10-13T10:01:42.175Z,22.60
2022-10-13T10:04:14.862Z,16.70
2022-10-13T10:06:42.141Z,16.35
2022-10-13T10:09:34.480Z,13.65
2022-10-13T10:12:03.380Z,15.23
2022-10-13T10:14:33.625Z,15.00
2022-10-13T10:17:37.848Z,16.58
2022-10-13T10:20:26.692Z,12.50
2022-10-13T10:23:07.225Z,15.70
2022-10-13T10:25:50.823Z,17.77
2022-10-13T10:28:46.680Z,17.03
2022-10-13T10:31:25.521Z,15.48
2022-10-13T10:34:20.006Z,13.63
2022-10-13T10:37:25.111Z,14.27
2022-10-13T10:40:29.066Z,15.02
2022-10-13T10:43:26.995Z,14.50
2022-10-13T10:45:57.617Z,15.93
2022-10-13T10:48:32.886Z,14.20
2022-10-13T10:51:01.265Z,16.15
2022-10-13T10:53:53.954Z,12.73
2022-10-13T10:56:35.333Z,16.77
2022-10-13T10:59:43.884Z,12.05
2022-10-13T11:02:24.829Z,16.48
2022-10-13T11:04:54.098Z,12.88
2022-10-13T11:07:23.767Z,16.10
2022-10-13T11:09:54.063Z,15.25
2022-10-13T11:12:21.179Z,14.30
2022-10-13T11:14:54.832Z,18.15
2022-10-13T11:17:32.827Z,14.00
2022-10-13T11:20:00.529Z,18.40
2022-10-13T11:22:30.716Z,17.98
2022-10-13T11:25:24.486Z,21.50
2022-10-13T11:27:51.261Z,19.45
2022-10-13T11:30:39.781Z,16.20
2022-10-13T11:33:40.736Z,23.40
2022-10-13T11:36:44.897Z,16.92
2022-10-13T11:42:13.031Z,17.45
2022-10-13T11:44:59.259Z,14.35
2022-10-13T11:47:45.233Z,14.85
2022-10-13T11:50:49.706Z,14.38
2022-10-13T11:53:21.502Z,14.35
2022-10-13T11:55:56.674Z,19.10
2022-10-13T11:58:30.195Z,14.48
2022-10-13T12:01:02.219Z,18.25
2022-10-13T12:03:39.935Z,19.70
2022-10-13T12:06:34.178Z,20.58
2022-10-13T12:09:05.087Z,13.48
2022-10-13T12:11:38.051Z,9.75
2022-10-13T12:14:18.672Z,14.02
2022-10-13T12:19:42.526Z,14.77
2022-10-13T12:22:13.464Z,12.00
2022-10-13T12:24:40.705Z,14.98
2022-10-13T12:27:21.993Z,13.43
2022-10-13T12:29:48.967Z,13.32
2022-10-13T12:32:36.031Z,15.75
2022-10-13T12:35:27.092Z,17.55
2022-10-13T12:37:55.610Z,14.60
2022-10-13T12:40:23.530Z,11.68
2022-10-13T12:42:50.804Z,15.18
2022-10-13T12:45:21.033Z,15.82
2022-10-13T12:47:55.159Z,16.10
2022-10-13T12:50:30.665Z,18.42
2022-10-13T12:53:03.715Z,16.85
2022-10-13T12:55:31.809Z,14.25
2022-10-13T12:57:59.253Z,13.23
2022-10-13T13:00:29.056Z,16.67
2022-10-13T13:03:01.254Z,15.00
2022-10-13T13:05:36.869Z,13.55
2022-10-13T13:08:22.310Z,11.93
2022-10-13T13:11:06.376Z,12.70
2022-10-13T13:13:33.563Z,14.68
2022-10-13T13:16:20.027Z,12.18
2022-10-13T13:18:49.322Z,13.82
2022-10-13T13:21:18.343Z,13.23
2022-10-13T13:23:51.213Z,13.45
2022-10-13T13:26:22.565Z,12.05
2022-10-13T13:28:55.315Z,13.13
2022-10-13T13:31:26.414Z,10.95
2022-10-13T13:33:53.564Z,12.15
2022-10-13T13:36:22.946Z,13.57
2022-10-13T13:38:50.235Z,15.27
2022-10-13T13:41:17.710Z,11.63
2022-10-13T13:43:44.914Z,11.90
2022-10-13T13:46:21.868Z,18.60
2022-10-13T13:48:49.281Z,15.02
2022-10-13T13:51:16.078Z,14.45
2022-10-13T13:53:43.075Z,13.05
2022-10-13T13:56:17.958Z,20.27
2022-10-13T13:58:46.405Z,18.40
2022-10-13T14:01:14.163Z,17.15
2022-10-13T14:03:41.272Z,14.45
2022-10-13T14:06:08.659Z,19.50
2022-10-13T14:08:42.304Z,14.18
2022-10-13T14:11:11.174Z,13.30
2022-10-13T14:13:40.491Z,11.93
2022-10-13T14:16:07.775Z,12.95
2022-10-13T14:18:34.754Z,13.40
2022-10-13T14:21:05.959Z,15.18
2022-10-13T14:23:32.693Z,21.05
2022-10-13T14:26:06.957Z,20.10
2022-10-13T14:28:33.727Z,12.52
2022-10-13T14:31:05.069Z,15.35
2022-10-13T14:33:44.317Z,15.82
2022-10-13T14:36:13.076Z,15.20
2022-10-13T14:38:43.141Z,13.82
2022-10-13T14:41:11.330Z,11.57
2022-10-13T14:43:37.998Z,13.82
2022-10-13T14:46:08.077Z,23.60
2022-10-13T14:48:36.268Z,14.65
2022-10-13T14:51:07.499Z,14.63
2022-10-13T14:53:40.046Z,15.07
2022-10-13T14:56:21.781Z,12.50
2022-10-13T14:58:50.012Z,13.60
2022-10-13T15:01:17.800Z,13.15
2022-10-13T15:03:45.239Z,17.02
2022-10-13T15:06:17.860Z,12.68
2022-10-13T15:08:45.839Z,16.70
2022-10-13T15:11:13.010Z,14.63
2022-10-13T15:13:40.491Z,16.60
2022-10-13T15:16:08.401Z,12.43
2022-10-13T15:18:38.496Z,18.98
2022-10-13T15:21:05.346Z,20.73
2022-10-13T15:23:32.710Z,14.40
2022-10-13T15:26:01.241Z,16.02
2022-10-13T15:28:32.617Z,15.40
2022-10-13T15:30:59.362Z,12.32
2022-10-13T15:33:26.090Z,18.15
2022-10-13T15:35:53.399Z,14.20
2022-10-13T15:38:21.189Z,16.30
2022-10-13T15:40:48.176Z,20.48
2022-10-13T15:43:15.801Z,24.83
2022-10-13T15:45:56.798Z,24.92
2022-10-13T15:48:23.794Z,25.50
2022-10-13T15:50:50.589Z,21.27
2022-10-13T15:53:17.433Z,23.52
2022-10-13T15:55:46.443Z,23.85
2022-10-13T15:58:16.164Z,19.30
2022-10-13T16:00:44.851Z,16.63
2022-10-13T16:03:16.475Z,17.33
2022-10-13T16:05:44.399Z,14.20
2022-10-13T16:08:12.853Z,12.32
2022-10-13T16:10:41.180Z,15.68
2022-10-13T16:13:08.937Z,18.27
2022-10-13T16:15:35.849Z,19.92
2022-10-13T16:18:02.672Z,15.63
2022-10-13T16:20:34.514Z,15.63
2022-10-13T16:23:01.709Z,17.48
2022-10-13T16:25:29.412Z,16.17
2022-10-13T16:27:56.365Z,17.55
2022-10-13T16:30:23.158Z,15.05
2022-10-13T16:32:49.956Z,16.58
2022-10-13T16:35:16.915Z,20.50
2022-10-13T16:37:43.680Z,16.73
2022-10-13T16:40:10.914Z,19.10
2022-10-13T16:42:38.350Z,23.55
2022-10-13T16:45:05.743Z,16.83
2022-10-13T16:47:33.515Z,19.80
2022-10-13T16:50:00.277Z,23.27
2022-10-13T16:52:26.995Z,20.52
2022-10-13T16:54:53.662Z,16.13
2022-10-13T16:57:24.017Z,16.23
2022-10-13T16:59:51.005Z,16.65
2022-10-13T17:02:18.074Z,21.58
2022-10-13T17:04:44.922Z,17.73
2022-10-13T17:07:11.671Z,17.95
2022-10-13T17:09:39.730Z,21.42
2022-10-13T17:12:07.753Z,23.30
2022-10-13T17:14:34.454Z,19.40
2022-10-13T17:17:01.177Z,25.73
2022-10-13T17:19:27.875Z,20.63
2022-10-13T17:21:54.637Z,19.98
2022-10-13T17:24:23.851Z,24.65
2022-10-13T17:26:52.372Z,22.35
2022-10-13T17:29:19.131Z,19.75
2022-10-13T17:31:47.339Z,14.77
2022-10-13T17:34:14.049Z,17.40
2022-10-13T17:36:41.886Z,21.17
2022-10-13T17:39:11.591Z,16.45
2022-10-13T17:41:38.296Z,18.90
2022-10-13T17:44:05.138Z,13.68
2022-10-13T17:46:38.076Z,16.77
2022-10-13T17:49:10.546Z,15.88
2022-10-13T17:51:37.787Z,14.23
2022-10-13T17:54:05.025Z,11.38
2022-10-13T17:56:32.052Z,11.00
2022-10-13T17:59:00.424Z,7.38
2022-10-13T18:01:30.076Z,6.32
2022-10-13T18:04:00.618Z,7.85
2022-10-13T18:06:43.965Z,7.15
2022-10-13T18:09:16.006Z,44.00
2022-10-13T18:11:50.212Z,7.82
2022-10-13T18:14:19.278Z,7.47
2022-10-13T18:16:46.803Z,8.45
2022-10-13T18:19:13.924Z,8.05
2022-10-13T18:21:40.625Z,3.85
2022-10-13T18:24:09.098Z,9.27
2022-10-13T18:26:37.314Z,6.03
2022-10-13T18:29:08.725Z,8.25
2022-10-13T18:31:37.224Z,5.22
2022-10-13T18:34:06.655Z,8.48
2022-10-13T18:36:39.189Z,8.20
2022-10-13T18:39:08.882Z,4.13
2022-10-13T18:41:37.748Z,6.00
2022-10-13T18:44:05.099Z,5.82
2022-10-13T18:46:36.122Z,4.38
2022-10-13T18:49:04.298Z,3.97
2022-10-13T18:51:35.968Z,5.30
2022-10-13T18:54:04.310Z,6.90
2022-10-13T18:56:33.350Z,5.80
2022-10-13T18:59:01.853Z,6.95
2022-10-13T19:01:32.137Z,4.88
2022-10-13T19:03:59.519Z,6.97
2022-10-13T19:06:28.142Z,6.88
2022-10-13T19:08:56.866Z,8.00
2022-10-13T19:11:24.676Z,5.72
2022-10-13T19:13:51.760Z,6.57
2022-10-13T19:16:21.870Z,5.90
2022-10-13T19:18:49.299Z,7.95
2022-10-13T19:21:18.110Z,5.40
2022-10-13T19:23:44.886Z,8.18
2022-10-13T19:26:20.222Z,7.03
2022-10-13T19:28:47.452Z,6.55
2022-10-13T19:31:17.187Z,11.52
2022-10-13T19:33:45.347Z,10.20
2022-10-13T19:36:20.674Z,9.63
2022-10-13T19:38:47.424Z,10.98
2022-10-13T19:41:17.088Z,7.97
2022-10-13T19:43:43.791Z,7.03
2022-10-13T19:46:10.791Z,8.75
2022-10-13T19:48:39.797Z,4.20
2022-10-13T19:51:08.734Z,5.97
2022-10-13T19:53:36.578Z,7.80
2022-10-13T19:56:06.280Z,5.72
2022-10-13T19:58:33.900Z,7.88
2022-10-13T20:01:06.730Z,7.65
2022-10-13T20:03:33.648Z,6.78
2022-10-13T20:06:05.129Z,8.43
2022-10-13T20:08:32.701Z,8.00
2022-10-13T20:11:00.720Z,10.32
2022-10-13T20:13:27.486Z,5.97
2022-10-13T20:15:54.216Z,5.95
2022-10-13T20:18:20.946Z,5.68
2022-10-13T20:20:50.742Z,7.70
2022-10-13T20:23:19.727Z,7.68
2022-10-13T20:25:46.452Z,10.90
2022-10-13T20:28:15.081Z,6.97
2022-10-13T20:30:41.861Z,4.82
2022-10-13T20:33:10.181Z,8.20
2022-10-13T20:35:36.897Z,8.63
2022-10-13T20:38:05.770Z,7.05
2022-10-13T20:40:32.473Z,6.55
2022-10-13T20:42:59.309Z,6.95
2022-10-13T20:45:26.121Z,10.32
2022-10-13T20:47:55.280Z,8.00
2022-10-13T20:50:21.962Z,6.55
2022-10-13T20:52:48.664Z,9.25
2022-10-13T20:55:15.431Z,7.93
2022-10-13T20:57:42.115Z,7.75
2022-10-13T21:00:09.772Z,12.75
2022-10-13T21:02:36.723Z,6.82
2022-10-13T21:05:03.548Z,7.38
2022-10-13T21:07:32.914Z,9.80
2022-10-13T21:09:59.598Z,7.75
2022-10-13T21:12:26.314Z,11.05
2022-10-13T21:14:53.042Z,8.65
2022-10-13T21:17:20.148Z,8.43
2022-10-13T21:19:47.015Z,12.02
2022-10-13T21:22:13.752Z,6.22
2022-10-13T21:24:41.187Z,8.95
2022-10-13T21:27:07.962Z,7.95
2022-10-13T21:29:34.623Z,9.25
2022-10-13T21:32:01.410Z,6.60
2022-10-13T21:34:28.226Z,7.75
2022-10-13T21:36:55.033Z,7.30
2022-10-13T21:39:21.791Z,10.68
2022-10-13T21:41:48.490Z,5.97
2022-10-13T21:44:16.546Z,9.07
2022-10-13T21:46:43.420Z,8.57
2022-10-13T21:49:10.130Z,7.78
2022-10-13T21:51:39.495Z,19.52
2022-10-13T21:54:08.872Z,7.97
2022-10-13T21:56:36.589Z,11.20
2022-10-13T21:59:04.394Z,11.93
2022-10-13T22:01:33.480Z,8.30
2022-10-13T22:04:01.627Z,10.85
2022-10-13T22:06:30.311Z,8.32
2022-10-13T22:08:58.767Z,11.30
2022-10-13T22:11:28.588Z,8.40
2022-10-13T22:13:59.236Z,9.15
2022-10-13T22:16:42.128Z,8.52
2022-10-13T22:19:09.044Z,6.43
2022-10-13T22:21:39.343Z,6.47
2022-10-13T22:24:09.587Z,10.10
2022-10-13T22:26:38.185Z,11.02
2022-10-13T22:29:06.374Z,9.07
2022-10-13T22:31:33.935Z,11.63
2022-10-13T22:34:01.462Z,9.75
2022-10-13T22:36:29.253Z,10.02
2022-10-13T22:38:58.890Z,7.97
2022-10-13T22:41:27.380Z,7.28
2022-10-13T22:43:55.943Z,10.80
2022-10-13T22:46:25.086Z,7.82
2022-10-13T22:48:51.987Z,8.85
2022-10-13T22:51:21.566Z,7.38
2022-10-13T22:53:48.989Z,7.70
2022-10-13T22:56:21.873Z,11.27
2022-10-13T22:58:55.235Z,7.53
2022-10-13T23:01:22.655Z,8.20
2022-10-13T23:03:51.348Z,8.05
2022-10-13T23:06:22.041Z,5.57
2022-10-13T23:08:49.545Z,7.78
2022-10-13T23:11:17.224Z,5.40
2022-10-13T23:13:44.298Z,7.18
2022-10-13T23:16:14.084Z,11.02
2022-10-13T23:18:41.010Z,6.90
2022-10-13T23:21:13.099Z,7.32
2022-10-13T23:23:39.921Z,7.85
2022-10-13T23:26:09.625Z,6.00
2022-10-13T23:28:38.011Z,10.43
2022-10-13T23:31:08.189Z,6.30
2022-10-13T23:33:35.116Z,5.97
2022-10-13T23:36:02.934Z,5.05
2022-10-13T23:38:30.921Z,5.72
2022-10-13T23:41:06.386Z,5.93
2022-10-13T23:43:33.526Z,7.38
2022-10-13T23:46:01.147Z,7.68
2022-10-13T23:48:29.574Z,8.43
2022-10-13T23:50:56.361Z,8.10
2022-10-13T23:53:23.403Z,3.65
2022-10-13T23:55:50.406Z,4.50
2022-10-13T23:58:17.962Z,6.82
